createdAt,value
2018-10-21T00:01:44.141Z,4.20
2018-10-21T00:04:12.249Z,4.10
2018-10-21T00:06:40.437Z,4.20
2018-10-21T00:09:11.012Z,4.10
2018-10-21T00:11:39.167Z,4.10
2018-10-21T00:14:07.322Z,3.90
2018-10-21T00:16:35.544Z,4.00
2018-10-21T00:19:03.969Z,4.00
2018-10-21T00:21:32.376Z,4.00
2018-10-21T00:24:00.481Z,4.00
2018-10-21T00:26:28.665Z,4.00
2018-10-21T00:28:56.910Z,4.00
2018-10-21T00:31:25.120Z,4.00
2018-10-21T00:33:53.239Z,4.00
2018-10-21T00:36:21.463Z,4.10
2018-10-21T00:38:49.833Z,4.10
2018-10-21T00:41:18.033Z,4.10
2018-10-21T00:43:46.196Z,4.10
2018-10-21T00:46:14.517Z,4.10
2018-10-21T00:48:42.877Z,4.10
2018-10-21T00:51:11.209Z,4.20
2018-10-21T00:53:39.383Z,4.30
2018-10-21T00:56:07.646Z,4.30
2018-10-21T00:58:35.857Z,4.30
2018-10-21T01:01:03.973Z,4.30
2018-10-21T01:03:32.210Z,4.40
2018-10-21T01:06:00.429Z,4.50
2018-10-21T01:08:28.622Z,4.50
2018-10-21T01:10:56.813Z,4.50
2018-10-21T01:13:24.929Z,4.60
2018-10-21T01:15:53.229Z,4.60
2018-10-21T01:18:21.375Z,4.60
2018-10-21T01:20:49.570Z,4.60
2018-10-21T01:23:17.647Z,4.70
2018-10-21T01:25:45.860Z,4.70
2018-10-21T01:28:14.050Z,4.70
2018-10-21T01:30:42.205Z,4.80
2018-10-21T01:33:10.504Z,4.80
2018-10-21T01:35:38.753Z,4.80
2018-10-21T01:38:07.096Z,4.90
2018-10-21T01:40:37.321Z,4.80
2018-10-21T01:43:05.817Z,4.90
2018-10-21T01:45:34.217Z,4.90
2018-10-21T01:48:03.373Z,4.90
2018-10-21T01:50:31.657Z,4.80
2018-10-21T01:53:00.905Z,4.90
2018-10-21T01:55:29.090Z,4.90
2018-10-21T01:57:58.080Z,4.90
2018-10-21T02:00:26.610Z,5.00
2018-10-21T02:02:55.366Z,4.90
2018-10-21T02:05:23.881Z,5.00
2018-10-21T02:07:52.100Z,5.00
2018-10-21T02:10:20.357Z,5.00
2018-10-21T02:12:48.606Z,5.00
2018-10-21T02:15:17.253Z,5.00
2018-10-21T02:17:46.016Z,5.10
2018-10-21T02:20:15.017Z,5.10
2018-10-21T02:22:43.815Z,5.10
2018-10-21T02:25:12.160Z,5.10
2018-10-21T02:27:41.106Z,5.20
2018-10-21T02:30:09.931Z,5.20
2018-10-21T02:32:38.187Z,5.20
2018-10-21T02:35:06.605Z,5.20
2018-10-21T02:37:34.693Z,5.30
2018-10-21T02:40:02.800Z,5.20
2018-10-21T02:42:31.141Z,5.20
2018-10-21T02:44:59.305Z,5.30
2018-10-21T02:47:27.646Z,5.30
2018-10-21T02:49:56.090Z,5.30
2018-10-21T02:52:24.448Z,5.30
2018-10-21T02:54:52.719Z,5.30
2018-10-21T02:57:20.969Z,5.30
2018-10-21T02:59:49.122Z,5.30
2018-10-21T03:02:17.257Z,5.30
2018-10-21T03:04:45.474Z,5.30
2018-10-21T03:07:13.636Z,5.30
2018-10-21T03:09:41.738Z,5.30
2018-10-21T03:12:09.973Z,5.30
2018-10-21T03:14:38.747Z,5.40
2018-10-21T03:17:07.109Z,5.40
2018-10-21T03:19:35.236Z,5.40
2018-10-21T03:22:03.416Z,5.40
2018-10-21T03:24:31.530Z,5.40
2018-10-21T03:27:00.427Z,5.40
2018-10-21T03:29:28.731Z,5.40
2018-10-21T03:31:56.954Z,5.40
2018-10-21T03:34:25.272Z,5.40
2018-10-21T03:36:53.559Z,5.40
2018-10-21T03:39:21.693Z,5.50
2018-10-21T03:41:49.800Z,5.40
2018-10-21T03:44:17.990Z,5.40
2018-10-21T03:46:46.067Z,5.40
2018-10-21T03:49:14.334Z,5.40
2018-10-21T03:51:42.729Z,5.40
2018-10-21T03:54:10.835Z,5.40
2018-10-21T03:56:38.954Z,5.40
2018-10-21T03:59:07.124Z,5.40
2018-10-21T04:01:35.343Z,5.40
2018-10-21T04:04:03.604Z,5.40
2018-10-21T04:06:31.782Z,5.40
2018-10-21T04:08:59.930Z,5.50
2018-10-21T04:11:29.266Z,5.50
2018-10-21T04:13:57.335Z,5.50
2018-10-21T04:16:25.578Z,5.50
2018-10-21T04:18:53.705Z,5.50
2018-10-21T04:21:21.889Z,5.50
2018-10-21T04:23:50.013Z,5.50
2018-10-21T04:26:18.150Z,5.50
2018-10-21T04:28:46.382Z,5.50
2018-10-21T04:31:14.541Z,5.50
2018-10-21T04:33:44.393Z,5.50
2018-10-21T04:36:14.932Z,5.50
2018-10-21T04:38:48.486Z,5.60
2018-10-21T04:41:16.589Z,5.60
2018-10-21T04:43:44.717Z,5.60
2018-10-21T04:46:12.936Z,5.60
2018-10-21T04:48:41.085Z,5.60
2018-10-21T04:51:09.222Z,5.60
2018-10-21T04:53:37.649Z,5.60
2018-10-21T04:56:06.352Z,5.60
2018-10-21T04:58:34.510Z,5.60
2018-10-21T05:01:02.606Z,5.60
2018-10-21T05:03:30.724Z,5.60
2018-10-21T05:05:58.988Z,5.60
2018-10-21T05:08:27.257Z,5.60
2018-10-21T05:10:55.651Z,5.60
2018-10-21T05:13:23.776Z,5.70
2018-10-21T05:15:52.103Z,5.60
2018-10-21T05:18:20.286Z,5.70
2018-10-21T05:20:48.388Z,5.70
2018-10-21T05:23:16.545Z,5.70
2018-10-21T05:25:44.686Z,5.70
2018-10-21T05:28:12.929Z,5.70
2018-10-21T05:30:41.188Z,5.70
2018-10-21T05:33:09.482Z,5.70
2018-10-21T05:35:37.800Z,5.80
2018-10-21T05:38:05.994Z,5.80
2018-10-21T05:40:34.157Z,5.80
2018-10-21T05:43:02.167Z,5.80
2018-10-21T05:45:30.313Z,5.80
2018-10-21T05:47:58.597Z,5.80
2018-10-21T05:50:27.509Z,5.80
2018-10-21T05:52:55.701Z,5.80
2018-10-21T05:55:23.870Z,5.80
2018-10-21T05:57:52.237Z,5.80
2018-10-21T06:00:20.834Z,5.70
2018-10-21T06:02:49.018Z,5.80
2018-10-21T06:05:22.481Z,5.80
2018-10-21T06:07:50.721Z,5.80
2018-10-21T06:10:19.038Z,5.80
2018-10-21T06:12:47.357Z,5.80
2018-10-21T06:15:15.497Z,5.80
2018-10-21T06:17:43.825Z,5.80
2018-10-21T06:20:23.893Z,5.80
2018-10-21T06:22:52.740Z,5.80
2018-10-21T06:25:20.895Z,5.80
2018-10-21T06:27:50.530Z,5.90
2018-10-21T06:30:18.781Z,5.90
2018-10-21T06:32:46.929Z,5.90
2018-10-21T06:35:15.237Z,6.00
2018-10-21T06:37:43.343Z,6.00
2018-10-21T06:40:12.384Z,6.00
2018-10-21T06:42:40.528Z,6.10
2018-10-21T06:45:09.913Z,6.10
2018-10-21T06:47:38.173Z,6.10
2018-10-21T06:50:06.498Z,6.10
2018-10-21T06:52:34.607Z,6.10
2018-10-21T06:55:02.679Z,6.20
2018-10-21T06:57:30.980Z,6.20
2018-10-21T06:59:59.205Z,6.20
2018-10-21T07:02:27.306Z,6.20
2018-10-21T07:04:55.761Z,6.30
2018-10-21T07:07:23.846Z,6.20
2018-10-21T07:09:52.110Z,6.30
2018-10-21T07:12:20.400Z,6.40
2018-10-21T07:14:48.481Z,6.30
2018-10-21T07:17:16.797Z,6.40
2018-10-21T07:19:45.045Z,6.30
2018-10-21T07:22:13.287Z,6.30
2018-10-21T07:24:41.438Z,6.30
2018-10-21T07:27:09.577Z,6.30
2018-10-21T07:29:37.697Z,6.30
2018-10-21T07:32:05.823Z,6.30
2018-10-21T07:34:34.093Z,6.40
2018-10-21T07:37:02.298Z,6.30
2018-10-21T07:39:30.407Z,6.30
2018-10-21T07:41:58.769Z,6.40
2018-10-21T07:44:27.868Z,6.50
2018-10-21T07:46:56.029Z,6.50
2018-10-21T07:49:24.327Z,6.60
2018-10-21T07:51:52.413Z,6.80
2018-10-21T07:54:20.647Z,6.90
2018-10-21T07:56:49.086Z,7.00
2018-10-21T07:59:17.346Z,7.00
2018-10-21T08:01:45.471Z,7.10
2018-10-21T08:04:13.647Z,7.10
2018-10-21T08:06:47.311Z,7.10
2018-10-21T08:09:15.581Z,7.10
2018-10-21T08:11:43.949Z,7.20
2018-10-21T08:14:12.079Z,7.20
2018-10-21T08:16:40.293Z,7.30
2018-10-21T08:19:08.581Z,7.40
2018-10-21T08:21:36.783Z,7.40
2018-10-21T08:24:05.075Z,7.40
2018-10-21T08:26:33.443Z,7.50
2018-10-21T08:29:03.012Z,7.50
2018-10-21T08:31:31.342Z,7.50
2018-10-21T08:33:59.710Z,7.50
2018-10-21T08:36:27.893Z,7.60
2018-10-21T08:38:56.017Z,7.60
2018-10-21T08:41:24.347Z,7.70
2018-10-21T08:43:52.515Z,7.70
2018-10-21T08:46:21.777Z,7.70
2018-10-21T08:48:49.998Z,7.70
2018-10-21T08:51:18.186Z,7.70
2018-10-21T08:53:46.334Z,7.70
2018-10-21T08:56:14.612Z,7.70
2018-10-21T08:58:42.824Z,7.80
2018-10-21T09:01:11.088Z,7.90
2018-10-21T09:03:39.256Z,7.90
2018-10-21T09:06:07.338Z,7.90
2018-10-21T09:08:35.473Z,7.90
2018-10-21T09:11:03.810Z,8.00
2018-10-21T09:13:31.914Z,8.00
2018-10-21T09:16:00.136Z,8.10
2018-10-21T09:18:28.300Z,8.10
2018-10-21T09:20:56.550Z,8.10
2018-10-21T09:23:24.867Z,8.10
2018-10-21T09:25:53.034Z,8.20
2018-10-21T09:28:21.158Z,8.20
2018-10-21T09:30:49.476Z,8.20
2018-10-21T09:33:17.660Z,8.20
2018-10-21T09:35:46.012Z,8.30
2018-10-21T09:38:14.334Z,8.30
2018-10-21T09:40:43.297Z,8.30
2018-10-21T09:43:11.701Z,8.30
2018-10-21T09:45:39.834Z,8.40
2018-10-21T09:48:08.007Z,8.40
2018-10-21T09:50:36.268Z,8.50
2018-10-21T09:53:04.445Z,8.50
2018-10-21T09:55:32.521Z,8.60
2018-10-21T09:58:00.633Z,8.70
2018-10-21T10:00:33.985Z,8.70
2018-10-21T10:03:05.669Z,8.80
2018-10-21T10:05:33.896Z,8.90
2018-10-21T10:08:02.026Z,9.00
2018-10-21T10:10:30.301Z,9.00
2018-10-21T10:12:58.664Z,9.10
2018-10-21T10:15:26.809Z,9.10
2018-10-21T10:17:55.197Z,9.10
2018-10-21T10:20:23.395Z,9.20
2018-10-21T10:22:53.323Z,9.20
2018-10-21T10:25:21.430Z,9.30
2018-10-21T10:27:49.561Z,9.40
2018-10-21T10:30:17.626Z,9.40
2018-10-21T10:32:45.727Z,9.40
2018-10-21T10:35:14.646Z,9.50
2018-10-21T10:37:42.931Z,9.50
2018-10-21T10:40:12.290Z,9.50
2018-10-21T10:42:41.485Z,9.60
2018-10-21T10:45:09.659Z,9.60
2018-10-21T10:47:38.577Z,9.60
2018-10-21T10:50:07.434Z,9.60
2018-10-21T10:52:35.806Z,9.70
2018-10-21T10:55:03.975Z,9.60
2018-10-21T10:57:32.133Z,9.60
2018-10-21T11:00:00.431Z,9.60
2018-10-21T11:02:28.717Z,9.70
2018-10-21T11:04:57.110Z,9.80
2018-10-21T11:07:25.203Z,9.80
2018-10-21T11:09:54.036Z,9.80
2018-10-21T11:12:22.197Z,9.80
2018-10-21T11:14:50.345Z,9.90
2018-10-21T11:17:19.445Z,9.90
2018-10-21T11:19:47.669Z,9.90
2018-10-21T11:22:15.992Z,9.90
2018-10-21T11:24:47.321Z,9.90
2018-10-21T11:27:16.473Z,10.00
2018-10-21T11:29:44.930Z,10.00
2018-10-21T11:32:13.186Z,10.00
2018-10-21T11:34:41.385Z,10.00
2018-10-21T11:37:10.075Z,10.10
2018-10-21T11:39:38.347Z,10.10
2018-10-21T11:42:06.815Z,10.10
2018-10-21T11:44:35.165Z,10.10
2018-10-21T11:47:03.321Z,10.20
2018-10-21T11:49:32.077Z,10.20
2018-10-21T11:52:00.513Z,10.20
2018-10-21T11:54:28.720Z,10.20
2018-10-21T11:56:56.906Z,10.20
2018-10-21T11:59:25.097Z,10.20
2018-10-21T12:01:53.216Z,10.20
2018-10-21T12:04:21.593Z,10.20
2018-10-21T12:06:49.825Z,10.20
2018-10-21T12:09:18.148Z,10.20
2018-10-21T12:11:46.338Z,10.20
2018-10-21T12:14:14.502Z,10.20
2018-10-21T12:16:42.851Z,10.30
2018-10-21T12:19:11.066Z,10.30
2018-10-21T12:21:39.233Z,10.30
2018-10-21T12:24:07.554Z,10.20
2018-10-21T12:26:35.734Z,10.20
2018-10-21T12:29:04.692Z,10.30
2018-10-21T12:31:33.024Z,10.20
2018-10-21T12:34:01.229Z,10.20
2018-10-21T12:36:29.525Z,10.30
2018-10-21T12:38:57.869Z,10.30
2018-10-21T12:41:26.689Z,10.30
2018-10-21T12:43:54.870Z,10.30
2018-10-21T12:46:23.169Z,10.30
2018-10-21T12:48:51.423Z,10.30
2018-10-21T12:51:19.542Z,10.30
2018-10-21T12:53:47.668Z,10.30
2018-10-21T12:56:15.821Z,10.30
2018-10-21T12:58:44.166Z,10.30
2018-10-21T13:01:12.400Z,10.40
2018-10-21T13:03:40.553Z,10.40
2018-10-21T13:06:08.688Z,10.30
2018-10-21T13:08:36.917Z,10.40
2018-10-21T13:11:05.120Z,10.40
2018-10-21T13:13:33.217Z,10.40
2018-10-21T13:16:01.490Z,10.30
2018-10-21T13:18:29.648Z,10.40
2018-10-21T13:20:57.755Z,10.40
2018-10-21T13:23:25.903Z,10.40
2018-10-21T13:25:54.715Z,10.40
2018-10-21T13:28:22.909Z,10.40
2018-10-21T13:30:50.981Z,10.40
2018-10-21T13:33:19.221Z,10.40
2018-10-21T13:35:47.355Z,10.50
2018-10-21T13:38:16.099Z,10.40
2018-10-21T13:40:44.429Z,10.40
2018-10-21T13:43:12.990Z,10.50
2018-10-21T13:45:41.183Z,10.50
2018-10-21T13:48:09.440Z,10.50
2018-10-21T13:50:37.881Z,10.50
2018-10-21T13:53:06.228Z,10.50
2018-10-21T13:55:34.620Z,10.60
2018-10-21T13:58:02.757Z,10.60
2018-10-21T14:00:30.996Z,10.60
2018-10-21T14:02:59.149Z,10.60
2018-10-21T14:05:27.228Z,10.60
2018-10-21T14:07:55.478Z,10.60
2018-10-21T14:10:23.714Z,10.60
2018-10-21T14:12:51.907Z,10.60
2018-10-21T14:15:20.186Z,10.60
2018-10-21T14:17:48.345Z,10.60
2018-10-21T14:20:16.510Z,10.60
2018-10-21T14:22:44.742Z,10.60
2018-10-21T14:25:13.082Z,10.60
2018-10-21T14:27:42.027Z,10.70
2018-10-21T14:30:10.811Z,10.70
2018-10-21T14:32:39.502Z,10.70
2018-10-21T14:35:08.304Z,10.70
2018-10-21T14:37:37.146Z,10.70
2018-10-21T14:40:05.910Z,10.70
2018-10-21T14:42:34.097Z,10.70
2018-10-21T14:45:02.373Z,10.70
2018-10-21T14:47:30.549Z,10.70
2018-10-21T14:49:59.181Z,10.70
2018-10-21T14:52:27.374Z,10.80
2018-10-21T14:54:55.815Z,10.70
2018-10-21T14:57:24.006Z,10.80
2018-10-21T14:59:52.241Z,10.80
2018-10-21T15:02:20.510Z,10.80
2018-10-21T15:04:48.715Z,10.80
2018-10-21T15:07:16.858Z,10.80
2018-10-21T15:09:45.084Z,10.90
2018-10-21T15:12:13.316Z,10.80
2018-10-21T15:14:41.721Z,10.90
2018-10-21T15:17:10.120Z,10.90
2018-10-21T15:19:39.145Z,10.90
2018-10-21T15:22:07.397Z,10.90
2018-10-21T15:24:35.565Z,10.90
2018-10-21T15:27:03.705Z,10.90
2018-10-21T15:29:33.138Z,11.00
2018-10-21T15:32:02.265Z,11.00
2018-10-21T15:34:30.478Z,11.00
2018-10-21T15:36:58.794Z,11.00
2018-10-21T15:39:27.103Z,11.00
2018-10-21T15:41:55.294Z,11.00
2018-10-21T15:44:23.586Z,11.10
2018-10-21T15:46:51.823Z,11.10
2018-10-21T15:49:20.110Z,11.10
2018-10-21T15:51:48.291Z,11.10
2018-10-21T15:54:16.414Z,11.10
2018-10-21T15:56:45.337Z,11.10
2018-10-21T15:59:13.797Z,11.10
2018-10-21T16:01:41.923Z,11.10
2018-10-21T16:04:10.228Z,11.10
2018-10-21T16:06:38.330Z,11.20
2018-10-21T16:09:08.541Z,11.20
2018-10-21T16:11:36.713Z,11.20
2018-10-21T16:14:05.185Z,11.20
2018-10-21T16:16:33.297Z,11.30
2018-10-21T16:19:01.354Z,11.30
2018-10-21T16:21:29.604Z,11.30
2018-10-21T16:23:57.931Z,11.30
2018-10-21T16:26:26.181Z,11.30
2018-10-21T16:28:55.281Z,11.40
2018-10-21T16:31:23.465Z,11.40
2018-10-21T16:33:52.393Z,11.40
2018-10-21T16:36:20.546Z,11.40
2018-10-21T16:38:48.746Z,11.40
2018-10-21T16:41:18.057Z,11.50
2018-10-21T16:43:46.251Z,11.50
2018-10-21T16:46:14.442Z,11.50
2018-10-21T16:48:42.776Z,11.50
2018-10-21T16:51:11.208Z,11.50
2018-10-21T16:53:39.281Z,11.50
2018-10-21T16:56:07.412Z,11.50
2018-10-21T16:58:35.802Z,11.60
2018-10-21T17:01:04.020Z,11.60
2018-10-21T17:03:32.044Z,11.60
2018-10-21T17:06:00.397Z,11.60
2018-10-21T17:08:28.521Z,11.60
2018-10-21T17:10:56.828Z,11.60
2018-10-21T17:13:24.893Z,11.70
2018-10-21T17:15:53.189Z,11.70
2018-10-21T17:18:21.324Z,11.70
2018-10-21T17:20:49.578Z,11.80
2018-10-21T17:23:17.767Z,11.80
2018-10-21T17:25:46.434Z,11.70
2018-10-21T17:28:14.687Z,11.70
2018-10-21T17:30:43.506Z,11.80
2018-10-21T17:33:11.639Z,11.80
2018-10-21T17:35:39.748Z,11.90
2018-10-21T17:38:08.125Z,11.80
2018-10-21T17:40:36.271Z,11.90
2018-10-21T17:43:04.510Z,11.90
2018-10-21T17:45:32.701Z,11.90
2018-10-21T17:48:00.884Z,11.90
2018-10-21T17:50:29.105Z,12.00
2018-10-21T17:52:57.234Z,11.90
2018-10-21T17:55:25.394Z,11.90
2018-10-21T17:57:53.543Z,12.00
2018-10-21T18:00:21.799Z,12.00
2018-10-21T18:02:50.130Z,12.00
2018-10-21T18:05:18.274Z,12.10
2018-10-21T18:07:46.546Z,12.10
2018-10-21T18:10:14.715Z,12.20
2018-10-21T18:12:42.922Z,12.10
2018-10-21T18:15:11.815Z,12.10
2018-10-21T18:17:40.525Z,12.20
2018-10-21T18:20:09.535Z,12.20
2018-10-21T18:22:37.718Z,12.20
2018-10-21T18:25:06.661Z,12.20
2018-10-21T18:27:34.912Z,12.20
2018-10-21T18:30:05.105Z,12.30
2018-10-21T18:32:33.296Z,12.30
2018-10-21T18:35:01.524Z,12.30
2018-10-21T18:37:29.728Z,12.40
2018-10-21T18:39:57.936Z,12.40
2018-10-21T18:42:26.166Z,12.40
2018-10-21T18:44:54.393Z,12.40
2018-10-21T18:47:23.637Z,12.40
2018-10-21T18:49:51.865Z,12.40
2018-10-21T18:52:20.694Z,12.40
2018-10-21T18:54:48.912Z,12.40
2018-10-21T18:57:17.333Z,12.50
2018-10-21T18:59:45.609Z,12.50
2018-10-21T19:02:13.758Z,12.50
2018-10-21T19:04:41.960Z,12.50
2018-10-21T19:07:10.462Z,12.60
2018-10-21T19:09:39.101Z,12.60
2018-10-21T19:12:08.471Z,12.50
2018-10-21T19:14:37.204Z,12.60
2018-10-21T19:17:05.886Z,12.70
2018-10-21T19:19:34.258Z,12.60
2018-10-21T19:22:02.397Z,12.70
2018-10-21T19:24:30.578Z,12.70
2018-10-21T19:26:58.807Z,12.70
2018-10-21T19:29:27.213Z,12.70
2018-10-21T19:31:55.412Z,12.70
2018-10-21T19:34:24.218Z,12.70
2018-10-21T19:36:52.350Z,12.80
2018-10-21T19:39:20.494Z,12.70
2018-10-21T19:41:49.645Z,12.70
2018-10-21T19:44:18.434Z,12.70
2018-10-21T19:46:46.697Z,12.70
2018-10-21T19:49:15.250Z,12.70
2018-10-21T19:51:43.273Z,12.70
2018-10-21T19:54:11.507Z,12.80
2018-10-21T19:56:39.660Z,12.70
2018-10-21T19:59:07.914Z,12.70
2018-10-21T20:01:36.080Z,12.80
2018-10-21T20:04:04.286Z,12.80
2018-10-21T20:06:32.513Z,12.80
2018-10-21T20:09:00.886Z,12.80
2018-10-21T20:11:29.212Z,12.80
2018-10-21T20:13:57.420Z,12.80
2018-10-21T20:16:25.533Z,12.80
2018-10-21T20:18:53.693Z,12.90
2018-10-21T20:21:22.042Z,12.80
2018-10-21T20:23:50.171Z,12.80
2018-10-21T20:26:18.381Z,12.80
2018-10-21T20:28:46.781Z,12.80
2018-10-21T20:31:15.013Z,12.80
2018-10-21T20:33:44.123Z,12.90
2018-10-21T20:36:13.326Z,12.80
2018-10-21T20:38:41.722Z,12.90
2018-10-21T20:41:10.061Z,12.80
2018-10-21T20:43:38.344Z,12.90
2018-10-21T20:46:06.543Z,12.90
2018-10-21T20:48:34.733Z,12.90
2018-10-21T20:51:02.955Z,13.00
2018-10-21T20:53:31.513Z,13.00
2018-10-21T20:55:59.697Z,13.00
2018-10-21T20:58:28.221Z,13.00
2018-10-21T21:00:56.265Z,13.10
2018-10-21T21:03:24.389Z,13.10
2018-10-21T21:05:52.729Z,13.10
2018-10-21T21:08:20.955Z,13.10
2018-10-21T21:10:50.099Z,13.20
2018-10-21T21:13:18.385Z,13.10
2018-10-21T21:15:46.573Z,13.20
2018-10-21T21:18:14.774Z,13.20
2018-10-21T21:20:43.233Z,13.30
2018-10-21T21:23:11.313Z,13.30
2018-10-21T21:25:39.461Z,13.30
2018-10-21T21:28:08.340Z,13.30
2018-10-21T21:30:36.767Z,13.30
2018-10-21T21:33:05.136Z,13.40
2018-10-21T21:35:33.415Z,13.40
2018-10-21T21:38:01.638Z,13.40
2018-10-21T21:40:29.768Z,13.40
2018-10-21T21:42:57.866Z,13.50
2018-10-21T21:45:26.342Z,13.40
2018-10-21T21:47:54.628Z,13.50
2018-10-21T21:50:22.826Z,13.50
2018-10-21T21:52:51.038Z,13.50
2018-10-21T21:55:19.161Z,13.50
2018-10-21T21:57:47.446Z,13.50
2018-10-21T22:00:15.551Z,13.60
2018-10-21T22:05:28.455Z,13.60
2018-10-21T22:07:56.724Z,13.60
2018-10-21T22:10:24.785Z,13.60
2018-10-21T22:12:53.105Z,13.70
2018-10-21T22:15:21.265Z,13.60
2018-10-21T22:17:49.424Z,13.60
2018-10-21T22:20:17.537Z,13.60
2018-10-21T22:22:45.695Z,13.60
2018-10-21T22:25:13.909Z,13.60
2018-10-21T22:27:42.675Z,13.60
2018-10-21T22:30:11.733Z,13.70
2018-10-21T22:32:39.977Z,13.60
2018-10-21T22:35:09.854Z,13.60
2018-10-21T22:37:38.101Z,13.60
2018-10-21T22:40:06.332Z,13.60
2018-10-21T22:42:34.501Z,13.60
2018-10-21T22:45:02.651Z,13.60
2018-10-21T22:47:30.862Z,13.70
2018-10-21T22:49:59.022Z,13.70
2018-10-21T22:52:27.185Z,13.70
2018-10-21T22:54:55.349Z,13.70
2018-10-21T22:57:23.569Z,13.70
2018-10-21T23:08:05.038Z,13.80
2018-10-21T23:10:33.180Z,13.80
2018-10-21T23:13:01.343Z,13.90
2018-10-21T23:15:29.536Z,13.90
2018-10-21T23:17:57.763Z,13.90
2018-10-21T23:20:26.048Z,13.90
2018-10-21T23:22:54.193Z,13.90
2018-10-21T23:25:23.133Z,13.80
2018-10-21T23:27:51.301Z,13.90
2018-10-21T23:30:19.944Z,13.90
2018-10-21T23:32:48.094Z,13.90
2018-10-21T23:35:17.496Z,13.80
2018-10-21T23:37:45.625Z,13.90
2018-10-21T23:40:13.812Z,13.90
2018-10-21T23:42:41.830Z,13.90
2018-10-21T23:45:10.070Z,14.00
2018-10-21T23:47:38.186Z,13.90
2018-10-21T23:50:06.570Z,13.90
2018-10-21T23:52:34.708Z,13.90
2018-10-21T23:55:02.944Z,13.70
2018-10-21T23:57:31.145Z,13.60
2018-10-21T23:59:59.466Z,13.10
